sensor_id;sensor_type;location;lat;lon;timestamp;pressure;altitude;pressure_sealevel;temperature;humidity
24874;BME280;12945;42.648;23.370;2023-01-25T10:55:16;95450.13;;;4.90;nan
24874;BME280;12945;42.648;23.370;2023-01-25T10:58:02;95433.03;;;4.82;nan
24874;BME280;12945;42.648;23.370;2023-01-25T11:00:36;95440.75;;;4.84;nan
24874;BME280;12945;42.648;23.370;2023-01-25T11:03:03;95438.06;;;4.84;nan
24874;BME280;12945;42.648;23.370;2023-01-25T11:05:36;95434.06;;;4.78;nan
24874;BME280;12945;42.648;23.370;2023-01-25T11:08:24;95433.84;;;4.83;nan
24874;BME280;12945;42.648;23.370;2023-01-25T11:10:51;95426.34;;;4.76;nan
24874;BME280;12945;42.648;23.370;2023-01-25T11:13:19;95429.59;;;4.82;nan
24874;BME280;12945;42.648;23.370;2023-01-25T11:15:53;95424.72;;;4.71;nan
24874;BME280;12945;42.648;23.370;2023-01-25T11:18:28;95425.13;;;4.73;nan
24874;BME280;12945;42.648;23.370;2023-01-25T11:23:35;95417.22;;;4.77;nan
24874;BME280;12945;42.648;23.370;2023-01-25T11:28:39;95405.06;;;4.80;nan
24874;BME280;12945;42.648;23.370;2023-01-25T11:31:11;95405.84;;;4.80;nan
24874;BME280;12945;42.648;23.370;2023-01-25T11:33:38;95412.00;;;4.81;nan
24874;BME280;12945;42.648;23.370;2023-01-25T11:38:35;95404.75;;;4.81;nan
24874;BME280;12945;42.648;23.370;2023-01-25T11:41:33;95399.94;;;4.87;nan
24874;BME280;12945;42.648;23.370;2023-01-25T11:46:52;95384.53;;;4.96;nan
24874;BME280;12945;42.648;23.370;2023-01-25T11:55:19;95370.84;;;4.85;nan
24874;BME280;12945;42.648;23.370;2023-01-25T11:58:15;95372.28;;;4.83;nan
24874;BME280;12945;42.648;23.370;2023-01-25T12:01:13;95361.59;;;4.83;nan
24874;BME280;12945;42.648;23.370;2023-01-25T12:04:05;95349.00;;;4.71;nan
24874;BME280;12945;42.648;23.370;2023-01-25T12:06:58;95358.59;;;4.84;nan
24874;BME280;12945;42.648;23.370;2023-01-25T12:09:49;95359.38;;;4.85;nan
24874;BME280;12945;42.648;23.370;2023-01-25T12:12:20;95363.59;;;4.86;nan
24874;BME280;12945;42.648;23.370;2023-01-25T12:15:01;95347.56;;;4.73;nan
24874;BME280;12945;42.648;23.370;2023-01-25T12:17:49;95351.00;;;4.74;nan
24874;BME280;12945;42.648;23.370;2023-01-25T12:28:04;95344.56;;;4.63;nan
24874;BME280;12945;42.648;23.370;2023-01-25T12:30:51;95343.00;;;4.62;nan
24874;BME280;12945;42.648;23.370;2023-01-25T12:33:31;95341.78;;;4.47;nan
24874;BME280;12945;42.648;23.370;2023-01-25T12:36:26;95338.09;;;4.52;nan
24874;BME280;12945;42.648;23.370;2023-01-25T12:41:38;95336.78;;;4.46;nan
24874;BME280;12945;42.648;23.370;2023-01-25T12:44:48;95339.91;;;4.36;nan
24874;BME280;12945;42.648;23.370;2023-01-25T12:47:38;95331.41;;;4.34;nan
24874;BME280;12945;42.648;23.370;2023-01-25T12:50:17;95329.88;;;4.33;nan
24874;BME280;12945;42.648;23.370;2023-01-25T12:52:54;95324.63;;;4.36;nan
24874;BME280;12945;42.648;23.370;2023-01-25T12:55:21;95324.41;;;4.29;nan
24874;BME280;12945;42.648;23.370;2023-01-25T13:05:39;95322.06;;;4.28;nan
24874;BME280;12945;42.648;23.370;2023-01-25T13:11:21;95314.03;;;4.28;nan
24874;BME280;12945;42.648;23.370;2023-01-25T13:13:48;95305.66;;;4.17;nan
24874;BME280;12945;42.648;23.370;2023-01-25T13:16:24;95305.22;;;4.15;nan
24874;BME280;12945;42.648;23.370;2023-01-25T13:18:57;95305.00;;;4.08;nan
24874;BME280;12945;42.648;23.370;2023-01-25T13:21:46;95300.31;;;4.17;nan
24874;BME280;12945;42.648;23.370;2023-01-25T13:24:27;95304.13;;;4.16;nan
24874;BME280;12945;42.648;23.370;2023-01-25T13:32:04;95295.53;;;4.35;nan
24874;BME280;12945;42.648;23.370;2023-01-25T13:37:01;95304.13;;;4.28;nan
24874;BME280;12945;42.648;23.370;2023-01-25T13:42:20;95310.25;;;4.16;nan
24874;BME280;12945;42.648;23.370;2023-01-25T13:44:48;95307.47;;;4.13;nan
24874;BME280;12945;42.648;23.370;2023-01-25T13:47:17;95305.22;;;4.15;nan
24874;BME280;12945;42.648;23.370;2023-01-25T13:52:17;95309.56;;;4.07;nan
24874;BME280;12945;42.648;23.370;2023-01-25T13:54:47;95300.44;;;4.08;nan
24874;BME280;12945;42.648;23.370;2023-01-25T13:57:19;95311.47;;;4.07;nan
24874;BME280;12945;42.648;23.370;2023-01-25T13:59:44;95309.78;;;4.02;nan
24874;BME280;12945;42.648;23.370;2023-01-25T14:02:17;95315.56;;;3.92;nan
24874;BME280;12945;42.648;23.370;2023-01-25T14:04:46;95318.03;;;3.97;nan
24874;BME280;12945;42.648;23.370;2023-01-25T14:07:21;95314.81;;;4.04;nan
24874;BME280;12945;42.648;23.370;2023-01-25T14:09:48;95311.00;;;4.05;nan
24874;BME280;12945;42.648;23.370;2023-01-25T14:12:32;95306.22;;;4.10;nan
24874;BME280;12945;42.648;23.370;2023-01-25T14:18:25;95306.22;;;4.10;nan
24874;BME280;12945;42.648;23.370;2023-01-25T14:21:07;95297.44;;;4.10;nan
24874;BME280;12945;42.648;23.370;2023-01-25T14:23:34;95301.53;;;4.07;nan
24874;BME280;12945;42.648;23.370;2023-01-25T14:25:59;95304.09;;;3.92;nan
24874;BME280;12945;42.648;23.370;2023-01-25T14:28:26;95293.16;;;3.85;nan
24874;BME280;12945;42.648;23.370;2023-01-25T14:30:55;95293.50;;;3.71;nan
24874;BME280;12945;42.648;23.370;2023-01-25T14:36:07;95297.63;;;3.81;nan
24874;BME280;12945;42.648;23.370;2023-01-25T14:38:35;95288.16;;;3.71;nan
24874;BME280;12945;42.648;23.370;2023-01-25T14:41:18;95284.78;;;3.62;nan
24874;BME280;12945;42.648;23.370;2023-01-25T14:43:48;95294.22;;;3.47;nan
24874;BME280;12945;42.648;23.370;2023-01-25T14:48:43;95280.44;;;3.45;nan
24874;BME280;12945;42.648;23.370;2023-01-25T14:51:23;95289.97;;;3.46;nan
24874;BME280;12945;42.648;23.370;2023-01-25T14:54:04;95279.66;;;3.45;nan
24874;BME280;12945;42.648;23.370;2023-01-25T14:56:57;95286.50;;;3.34;nan
24874;BME280;12945;42.648;23.370;2023-01-25T15:00:04;95292.31;;;3.36;nan
24874;BME280;12945;42.648;23.370;2023-01-25T15:02:38;95290.38;;;3.36;nan
24874;BME280;12945;42.648;23.370;2023-01-25T15:07:45;95296.09;;;3.14;nan
24874;BME280;12945;42.648;23.370;2023-01-25T15:10:15;95298.72;;;3.02;nan
24874;BME280;12945;42.648;23.370;2023-01-25T15:12:41;95307.09;;;2.92;nan
24874;BME280;12945;42.648;23.370;2023-01-25T15:15:19;95309.13;;;2.74;nan
24874;BME280;12945;42.648;23.370;2023-01-25T15:17:47;95310.63;;;2.63;nan
24874;BME280;12945;42.648;23.370;2023-01-25T15:23:01;95329.13;;;2.59;nan
24874;BME280;12945;42.648;23.370;2023-01-25T15:25:27;95329.34;;;2.54;nan
24874;BME280;12945;42.648;23.370;2023-01-25T15:27:53;95320.34;;;2.38;nan
24874;BME280;12945;42.648;23.370;2023-01-25T15:30:19;95323.19;;;2.33;nan
24874;BME280;12945;42.648;23.370;2023-01-25T15:32:45;95335.47;;;2.26;nan
24874;BME280;12945;42.648;23.370;2023-01-25T15:35:15;95336.56;;;2.25;nan
24874;BME280;12945;42.648;23.370;2023-01-25T15:37:43;95320.41;;;2.21;nan
24874;BME280;12945;42.648;23.370;2023-01-25T15:40:11;95324.81;;;2.17;nan
24874;BME280;12945;42.648;23.370;2023-01-25T15:42:40;95323.28;;;2.16;nan
24874;BME280;12945;42.648;23.370;2023-01-25T15:45:07;95327.84;;;2.07;nan
24874;BME280;12945;42.648;23.370;2023-01-25T15:47:35;95331.28;;;2.07;nan
24874;BME280;12945;42.648;23.370;2023-01-25T15:50:02;95326.28;;;2.06;nan
24874;BME280;12945;42.648;23.370;2023-01-25T15:52:27;95327.22;;;2.10;nan
24874;BME280;12945;42.648;23.370;2023-01-25T15:54:52;95331.91;;;2.13;nan
24874;BME280;12945;42.648;23.370;2023-01-25T15:57:30;95323.00;;;2.09;nan
24874;BME280;12945;42.648;23.370;2023-01-25T15:59:56;95314.41;;;2.03;nan
24874;BME280;12945;42.648;23.370;2023-01-25T16:02:21;95326.41;;;2.18;nan
24874;BME280;12945;42.648;23.370;2023-01-25T16:04:47;95326.09;;;2.20;nan
24874;BME280;12945;42.648;23.370;2023-01-25T16:07:23;95323.22;;;2.25;nan
24874;BME280;12945;42.648;23.370;2023-01-25T16:09:50;95330.72;;;2.31;nan
24874;BME280;12945;42.648;23.370;2023-01-25T16:12:15;95327.47;;;2.26;nan
24874;BME280;12945;42.648;23.370;2023-01-25T16:14:41;95332.47;;;2.27;nan
24874;BME280;12945;42.648;23.370;2023-01-25T16:17:15;95327.78;;;2.24;nan
24874;BME280;12945;42.648;23.370;2023-01-25T16:19:41;95332.47;;;2.27;nan
24874;BME280;12945;42.648;23.370;2023-01-25T16:22:07;95330.56;;;2.28;nan
24874;BME280;12945;42.648;23.370;2023-01-25T16:24:33;95325.09;;;2.24;nan
24874;BME280;12945;42.648;23.370;2023-01-25T16:26:59;95324.75;;;2.34;nan
24874;BME280;12945;42.648;23.370;2023-01-25T16:29:25;95321.00;;;2.27;nan
24874;BME280;12945;42.648;23.370;2023-01-25T16:31:51;95331.66;;;2.27;nan
24874;BME280;12945;42.648;23.370;2023-01-25T16:34:17;95330.91;;;2.26;nan
24874;BME280;12945;42.648;23.370;2023-01-25T16:36:44;95321.66;;;2.24;nan
24874;BME280;12945;42.648;23.370;2023-01-25T16:41:40;95323.16;;;2.04;nan
24874;BME280;12945;42.648;23.370;2023-01-25T16:44:06;95316.59;;;2.01;nan
24874;BME280;12945;42.648;23.370;2023-01-25T16:46:32;95318.66;;;1.96;nan
24874;BME280;12945;42.648;23.370;2023-01-25T16:48:57;95316.50;;;1.89;nan
24874;BME280;12945;42.648;23.370;2023-01-25T16:51:26;95306.16;;;1.88;nan
24874;BME280;12945;42.648;23.370;2023-01-25T16:53:54;95309.09;;;1.95;nan
24874;BME280;12945;42.648;23.370;2023-01-25T16:56:22;95307.66;;;2.06;nan
24874;BME280;12945;42.648;23.370;2023-01-25T16:58:49;95310.91;;;2.11;nan
24874;BME280;12945;42.648;23.370;2023-01-25T17:01:16;95304.50;;;2.13;nan
24874;BME280;12945;42.648;23.370;2023-01-25T17:03:41;95305.28;;;2.13;nan
24874;BME280;12945;42.648;23.370;2023-01-25T17:06:14;95310.25;;;2.15;nan
24874;BME280;12945;42.648;23.370;2023-01-25T17:08:41;95309.81;;;2.13;nan
24874;BME280;12945;42.648;23.370;2023-01-25T17:11:06;95307.31;;;2.07;nan
24874;BME280;12945;42.648;23.370;2023-01-25T17:13:32;95286.88;;;1.91;nan
24874;BME280;12945;42.648;23.370;2023-01-25T17:15:58;95312.34;;;2.09;nan
24874;BME280;12945;42.648;23.370;2023-01-25T17:18:25;95316.09;;;2.08;nan
24874;BME280;12945;42.648;23.370;2023-01-25T17:21:02;95315.59;;;2.15;nan
24874;BME280;12945;42.648;23.370;2023-01-25T17:23:30;95316.69;;;2.13;nan
24874;BME280;12945;42.648;23.370;2023-01-25T17:25:56;95319.34;;;2.13;nan
24874;BME280;12945;42.648;23.370;2023-01-25T17:28:21;95315.28;;;2.16;nan
24874;BME280;12945;42.648;23.370;2023-01-25T17:30:47;95315.44;;;2.20;nan
24874;BME280;12945;42.648;23.370;2023-01-25T17:33:15;95308.53;;;2.19;nan
24874;BME280;12945;42.648;23.370;2023-01-25T17:35:41;95307.75;;;2.18;nan
24874;BME280;12945;42.648;23.370;2023-01-25T17:38:06;95302.88;;;2.20;nan
24874;BME280;12945;42.648;23.370;2023-01-25T17:40:34;95301.78;;;2.21;nan
24874;BME280;12945;42.648;23.370;2023-01-25T17:43:00;95294.88;;;2.20;nan
24874;BME280;12945;42.648;23.370;2023-01-25T17:45:26;95288.00;;;2.19;nan
24874;BME280;12945;42.648;23.370;2023-01-25T17:47:51;95293.78;;;2.21;nan
24874;BME280;12945;42.648;23.370;2023-01-25T17:50:17;95294.44;;;2.18;nan
24874;BME280;12945;42.648;23.370;2023-01-25T17:52:42;95290.19;;;2.17;nan
24874;BME280;12945;42.648;23.370;2023-01-25T17:55:08;95285.66;;;2.18;nan
24874;BME280;12945;42.648;23.370;2023-01-25T17:57:34;95288.50;;;2.13;nan
24874;BME280;12945;42.648;23.370;2023-01-25T18:00:03;95282.69;;;2.10;nan
24874;BME280;12945;42.648;23.370;2023-01-25T18:02:30;95277.56;;;2.05;nan
24874;BME280;12945;42.648;23.370;2023-01-25T18:04:55;95271.59;;;2.08;nan
24874;BME280;12945;42.648;23.370;2023-01-25T18:07:22;95279.81;;;1.95;nan
24874;BME280;12945;42.648;23.370;2023-01-25T18:09:47;95274.63;;;1.98;nan
24874;BME280;12945;42.648;23.370;2023-01-25T18:12:13;95274.97;;;1.97;nan
24874;BME280;12945;42.648;23.370;2023-01-25T18:14:38;95270.28;;;1.85;nan
24874;BME280;12945;42.648;23.370;2023-01-25T18:17:04;95260.13;;;1.87;nan
24874;BME280;12945;42.648;23.370;2023-01-25T18:19:29;95272.16;;;1.85;nan
24874;BME280;12945;42.648;23.370;2023-01-25T18:21:56;95272.78;;;1.90;nan
24874;BME280;12945;42.648;23.370;2023-01-25T18:26:49;95272.47;;;1.92;nan
24874;BME280;12945;42.648;23.370;2023-01-25T18:31:40;95257.25;;;1.92;nan
24874;BME280;12945;42.648;23.370;2023-01-25T18:34:06;95267.78;;;1.89;nan
24874;BME280;12945;42.648;23.370;2023-01-25T18:36:31;95273.44;;;1.87;nan
24874;BME280;12945;42.648;23.370;2023-01-25T18:38:57;95270.44;;;1.89;nan
24874;BME280;12945;42.648;23.370;2023-01-25T18:41:24;95250.22;;;1.88;nan
24874;BME280;12945;42.648;23.370;2023-01-25T18:43:49;95261.91;;;2.04;nan
24874;BME280;12945;42.648;23.370;2023-01-25T18:46:15;95267.56;;;2.02;nan
24874;BME280;12945;42.648;23.370;2023-01-25T18:48:40;95275.84;;;2.09;nan
24874;BME280;12945;42.648;23.370;2023-01-25T18:51:10;95273.63;;;2.11;nan
24874;BME280;12945;42.648;23.370;2023-01-25T18:53:39;95275.13;;;2.21;nan
24874;BME280;12945;42.648;23.370;2023-01-25T18:56:11;95285.28;;;2.28;nan
24874;BME280;12945;42.648;23.370;2023-01-25T18:58:37;95276.34;;;2.32;nan
24874;BME280;12945;42.648;23.370;2023-01-25T19:01:11;95278.25;;;2.23;nan
24874;BME280;12945;42.648;23.370;2023-01-25T19:03:38;95274.31;;;2.29;nan
24874;BME280;12945;42.648;23.370;2023-01-25T19:06:04;95267.22;;;2.33;nan
24874;BME280;12945;42.648;23.370;2023-01-25T19:08:30;95271.25;;;2.39;nan
24874;BME280;12945;42.648;23.370;2023-01-25T19:11:02;95267.63;;;2.44;nan
24874;BME280;12945;42.648;23.370;2023-01-25T19:13:28;95256.31;;;2.47;nan
24874;BME280;12945;42.648;23.370;2023-01-25T19:16:10;95263.22;;;2.48;nan
24874;BME280;12945;42.648;23.370;2023-01-25T19:18:38;95262.22;;;2.32;nan
24874;BME280;12945;42.648;23.370;2023-01-25T19:21:16;95257.84;;;2.27;nan
24874;BME280;12945;42.648;23.370;2023-01-25T19:23:42;95259.94;;;2.22;nan
24874;BME280;12945;42.648;23.370;2023-01-25T19:26:10;95256.63;;;2.25;nan
24874;BME280;12945;42.648;23.370;2023-01-25T19:28:36;95256.19;;;2.14;nan
24874;BME280;12945;42.648;23.370;2023-01-25T19:31:22;95239.25;;;2.19;nan
24874;BME280;12945;42.648;23.370;2023-01-25T19:33:53;95239.25;;;2.19;nan
24874;BME280;12945;42.648;23.370;2023-01-25T19:36:19;95239.25;;;2.19;nan
24874;BME280;12945;42.648;23.370;2023-01-25T19:38:46;95235.59;;;2.02;nan
24874;BME280;12945;42.648;23.370;2023-01-25T19:41:17;95230.28;;;2.02;nan
24874;BME280;12945;42.648;23.370;2023-01-25T19:43:43;95232.72;;;2.07;nan
24874;BME280;12945;42.648;23.370;2023-01-25T19:46:13;95244.97;;;2.08;nan
24874;BME280;12945;42.648;23.370;2023-01-25T19:48:39;95243.25;;;2.04;nan
24874;BME280;12945;42.648;23.370;2023-01-25T19:53:42;95229.78;;;2.00;nan
24874;BME280;12945;42.648;23.370;2023-01-25T19:56:16;95228.69;;;2.01;nan
24874;BME280;12945;42.648;23.370;2023-01-25T19:58:45;95210.38;;;2.00;nan
24874;BME280;12945;42.648;23.370;2023-01-25T20:01:16;95217.72;;;2.03;nan
24874;BME280;12945;42.648;23.370;2023-01-25T20:03:42;95214.28;;;2.02;nan
24874;BME280;12945;42.648;23.370;2023-01-25T20:06:09;95213.06;;;2.00;nan
24874;BME280;12945;42.648;23.370;2023-01-25T20:08:37;95205.81;;;2.00;nan
24874;BME280;12945;42.648;23.370;2023-01-25T20:11:15;95208.38;;;1.97;nan
24874;BME280;12945;42.648;23.370;2023-01-25T20:13:41;95212.28;;;1.99;nan
24874;BME280;12945;42.648;23.370;2023-01-25T20:16:09;95210.56;;;1.95;nan
24874;BME280;12945;42.648;23.370;2023-01-25T20:18:35;95208.38;;;1.97;nan
24874;BME280;12945;42.648;23.370;2023-01-25T20:21:06;95194.72;;;1.98;nan
24874;BME280;12945;42.648;23.370;2023-01-25T20:23:34;95214.16;;;1.99;nan
24874;BME280;12945;42.648;23.370;2023-01-25T20:26:11;95209.28;;;2.01;nan
24874;BME280;12945;42.648;23.370;2023-01-25T20:28:38;95203.34;;;1.95;nan
24874;BME280;12945;42.648;23.370;2023-01-25T20:31:16;95199.47;;;1.93;nan
24874;BME280;12945;42.648;23.370;2023-01-25T20:33:42;95204.28;;;1.99;nan
24874;BME280;12945;42.648;23.370;2023-01-25T20:36:07;95204.06;;;2.04;nan
24874;BME280;12945;42.648;23.370;2023-01-25T20:38:35;95205.66;;;2.05;nan
24874;BME280;12945;42.648;23.370;2023-01-25T20:41:06;95205.31;;;2.07;nan
24874;BME280;12945;42.648;23.370;2023-01-25T20:43:32;95198.88;;;2.08;nan
24874;BME280;12945;42.648;23.370;2023-01-25T20:45:58;95199.47;;;2.13;nan
24874;BME280;12945;42.648;23.370;2023-01-25T20:48:25;95185.19;;;2.18;nan
24874;BME280;12945;42.648;23.370;2023-01-25T20:50:50;95189.44;;;2.19;nan
24874;BME280;12945;42.648;23.370;2023-01-25T20:53:16;95187.84;;;2.18;nan
24874;BME280;12945;42.648;23.370;2023-01-25T20:55:42;95184.53;;;2.21;nan
24874;BME280;12945;42.648;23.370;2023-01-25T20:58:08;95186.63;;;2.16;nan
24874;BME280;12945;42.648;23.370;2023-01-25T21:00:33;95179.88;;;2.18;nan
24874;BME280;12945;42.648;23.370;2023-01-25T21:02:59;95177.66;;;2.20;nan
24874;BME280;12945;42.648;23.370;2023-01-25T21:05:25;95175.63;;;2.17;nan
24874;BME280;12945;42.648;23.370;2023-01-25T21:07:51;95175.91;;;2.24;nan
24874;BME280;12945;42.648;23.370;2023-01-25T21:10:16;95171.03;;;2.26;nan
24874;BME280;12945;42.648;23.370;2023-01-25T21:12:42;95165.09;;;2.21;nan
24874;BME280;12945;42.648;23.370;2023-01-25T21:15:08;95163.31;;;2.13;nan
24874;BME280;12945;42.648;23.370;2023-01-25T21:17:34;95166.72;;;1.92;nan
24874;BME280;12945;42.648;23.370;2023-01-25T21:20:00;95170.47;;;1.91;nan
24874;BME280;12945;42.648;23.370;2023-01-25T21:22:28;95166.06;;;1.95;nan
24874;BME280;12945;42.648;23.370;2023-01-25T21:24:54;95154.00;;;1.98;nan
24874;BME280;12945;42.648;23.370;2023-01-25T21:27:19;95149.31;;;1.95;nan
24874;BME280;12945;42.648;23.370;2023-01-25T21:29:45;95151.97;;;1.95;nan
24874;BME280;12945;42.648;23.370;2023-01-25T21:32:10;95143.13;;;1.82;nan
24874;BME280;12945;42.648;23.370;2023-01-25T21:34:36;95154.94;;;1.73;nan
24874;BME280;12945;42.648;23.370;2023-01-25T21:37:01;95149.16;;;1.71;nan
24874;BME280;12945;42.648;23.370;2023-01-25T21:39:27;95158.25;;;1.70;nan
24874;BME280;12945;42.648;23.370;2023-01-25T21:41:52;95153.38;;;1.72;nan
24874;BME280;12945;42.648;23.370;2023-01-25T21:44:18;95158.69;;;1.72;nan
24874;BME280;12945;42.648;23.370;2023-01-25T21:47:02;95149.09;;;1.79;nan
24874;BME280;12945;42.648;23.370;2023-01-25T21:49:27;95148.25;;;1.67;nan
24874;BME280;12945;42.648;23.370;2023-01-25T21:52:11;95144.63;;;1.71;nan
24874;BME280;12945;42.648;23.370;2023-01-25T21:54:36;95141.53;;;1.61;nan
24874;BME280;12945;42.648;23.370;2023-01-25T21:57:07;95144.66;;;1.63;nan
24874;BME280;12945;42.648;23.370;2023-01-25T21:59:36;95138.69;;;1.66;nan
24874;BME280;12945;42.648;23.370;2023-01-25T22:02:04;95129.97;;;1.56;nan
24874;BME280;12945;42.648;23.370;2023-01-25T22:04:30;95125.00;;;1.55;nan
24874;BME280;12945;42.648;23.370;2023-01-25T22:07:03;95092.56;;;1.32;nan
24874;BME280;12945;42.648;23.370;2023-01-25T22:09:29;95113.63;;;1.37;nan
24874;BME280;12945;42.648;23.370;2023-01-25T22:11:55;95118.50;;;1.35;nan
24874;BME280;12945;42.648;23.370;2023-01-25T22:14:20;95118.81;;;1.34;nan
24874;BME280;12945;42.648;23.370;2023-01-25T22:16:51;95089.13;;;1.23;nan
24874;BME280;12945;42.648;23.370;2023-01-25T22:19:17;95101.19;;;1.29;nan
24874;BME280;12945;42.648;23.370;2023-01-25T22:21:43;95112.56;;;1.30;nan
24874;BME280;12945;42.648;23.370;2023-01-25T22:24:09;95098.91;;;1.11;nan
24874;BME280;12945;42.648;23.370;2023-01-25T22:29:13;95102.03;;;1.13;nan
24874;BME280;12945;42.648;23.370;2023-01-25T22:31:39;95107.81;;;1.15;nan
24874;BME280;12945;42.648;23.370;2023-01-25T22:34:05;95110.59;;;1.18;nan
24874;BME280;12945;42.648;23.370;2023-01-25T22:36:31;95095.78;;;1.09;nan
24874;BME280;12945;42.648;23.370;2023-01-25T22:38:56;95081.84;;;1.12;nan
24874;BME280;12945;42.648;23.370;2023-01-25T22:41:26;95062.16;;;1.04;nan
24874;BME280;12945;42.648;23.370;2023-01-25T22:43:52;95070.78;;;1.01;nan
24874;BME280;12945;42.648;23.370;2023-01-25T22:46:21;95066.09;;;1.07;nan
24874;BME280;12945;42.648;23.370;2023-01-25T22:48:47;95066.19;;;1.10;nan
24874;BME280;12945;42.648;23.370;2023-01-25T22:51:15;95067.75;;;1.11;nan
24874;BME280;12945;42.648;23.370;2023-01-25T22:53:41;95062.94;;;1.13;nan
24874;BME280;12945;42.648;23.370;2023-01-25T22:56:12;95054.81;;;1.10;nan
24874;BME280;12945;42.648;23.370;2023-01-25T22:58:40;95051.38;;;1.00;nan
24874;BME280;12945;42.648;23.370;2023-01-25T23:01:10;95050.44;;;1.05;nan
24874;BME280;12945;42.648;23.370;2023-01-25T23:03:36;95037.59;;;1.07;nan
24874;BME280;12945;42.648;23.370;2023-01-25T23:06:04;95042.97;;;0.98;nan
24874;BME280;12945;42.648;23.370;2023-01-25T23:08:32;95044.38;;;0.96;nan
24874;BME280;12945;42.648;23.370;2023-01-25T23:11:03;95036.72;;;0.94;nan
24874;BME280;12945;42.648;23.370;2023-01-25T23:13:30;95041.75;;;0.87;nan
24874;BME280;12945;42.648;23.370;2023-01-25T23:15:59;95038.00;;;0.88;nan
24874;BME280;12945;42.648;23.370;2023-01-25T23:18:25;95036.31;;;0.84;nan
24874;BME280;12945;42.648;23.370;2023-01-25T23:21:09;95024.91;;;0.75;nan
24874;BME280;12945;42.648;23.370;2023-01-25T23:23:34;95028.69;;;0.74;nan
24874;BME280;12945;42.648;23.370;2023-01-25T23:25:59;95033.84;;;0.70;nan
24874;BME280;12945;42.648;23.370;2023-01-25T23:28:29;95027.75;;;0.70;nan
24874;BME280;12945;42.648;23.370;2023-01-25T23:30:55;95031.84;;;0.67;nan
24874;BME280;12945;42.648;23.370;2023-01-25T23:33:37;95036.34;;;0.75;nan
24874;BME280;12945;42.648;23.370;2023-01-25T23:36:52;95027.03;;;0.61;nan
24874;BME280;12945;42.648;23.370;2023-01-25T23:39:00;95024.97;;;0.66;nan
24874;BME280;12945;42.648;23.370;2023-01-25T23:41:27;95030.59;;;0.65;nan
24874;BME280;12945;42.648;23.370;2023-01-25T23:43:54;95012.47;;;0.67;nan
24874;BME280;12945;42.648;23.370;2023-01-25T23:46:20;95014.47;;;0.70;nan
24874;BME280;12945;42.648;23.370;2023-01-25T23:48:46;95013.06;;;0.72;nan
24874;BME280;12945;42.648;23.370;2023-01-25T23:51:15;95000.84;;;0.71;nan
24874;BME280;12945;42.648;23.370;2023-01-25T23:53:41;95004.19;;;0.60;nan
24874;BME280;12945;42.648;23.370;2023-01-25T23:56:12;94994.00;;;0.62;nan
24874;BME280;12945;42.648;23.370;2023-01-25T23:58:38;95004.19;;;0.60;nan
